sensor_id;sensor_type;location;lat;lon;timestamp;temperature;humidity
20208;DHT22;10263;48.716;8.760;2023-10-09T00:02:06;11.60;99.90
20208;DHT22;10263;48.716;8.760;2023-10-09T00:07:03;11.90;99.90
20208;DHT22;10263;48.716;8.760;2023-10-09T00:09:34;11.40;99.90
20208;DHT22;10263;48.716;8.760;2023-10-09T00:12:13;11.70;99.90
20208;DHT22;10263;48.716;8.760;2023-10-09T00:14:43;11.40;99.90
20208;DHT22;10263;48.716;8.760;2023-10-09T00:17:14;11.40;99.90
20208;DHT22;10263;48.716;8.760;2023-10-09T00:19:44;11.40;99.90
20208;DHT22;10263;48.716;8.760;2023-10-09T00:24:52;11.40;99.90
20208;DHT22;10263;48.716;8.760;2023-10-09T00:27:36;11.20;99.90
20208;DHT22;10263;48.716;8.760;2023-10-09T00:30:07;11.10;99.90
20208;DHT22;10263;48.716;8.760;2023-10-09T00:32:35;11.50;99.90
20208;DHT22;10263;48.716;8.760;2023-10-09T00:37:49;11.50;99.90
20208;DHT22;10263;48.716;8.760;2023-10-09T00:40:18;11.50;99.90
20208;DHT22;10263;48.716;8.760;2023-10-09T00:42:53;11.40;99.90
20208;DHT22;10263;48.716;8.760;2023-10-09T00:45:22;11.30;99.90
20208;DHT22;10263;48.716;8.760;2023-10-09T00:47:54;10.80;99.90
20208;DHT22;10263;48.716;8.760;2023-10-09T00:50:25;11.00;99.90
20208;DHT22;10263;48.716;8.760;2023-10-09T00:52:56;10.70;99.90
20208;DHT22;10263;48.716;8.760;2023-10-09T00:55:27;11.10;99.90
20208;DHT22;10263;48.716;8.760;2023-10-09T00:58:05;11.00;99.90
20208;DHT22;10263;48.716;8.760;2023-10-09T01:00:39;10.70;99.90
20208;DHT22;10263;48.716;8.760;2023-10-09T01:03:14;11.40;99.90
20208;DHT22;10263;48.716;8.760;2023-10-09T01:05:47;11.10;99.90
20208;DHT22;10263;48.716;8.760;2023-10-09T01:08:19;12.20;99.90
20208;DHT22;10263;48.716;8.760;2023-10-09T01:10:54;11.00;99.90
20208;DHT22;10263;48.716;8.760;2023-10-09T01:13:24;10.70;99.90
20208;DHT22;10263;48.716;8.760;2023-10-09T01:16:06;10.80;99.90
20208;DHT22;10263;48.716;8.760;2023-10-09T01:18:38;10.90;99.90
20208;DHT22;10263;48.716;8.760;2023-10-09T01:21:06;10.90;99.90
20208;DHT22;10263;48.716;8.760;2023-10-09T01:23:35;10.60;99.90
20208;DHT22;10263;48.716;8.760;2023-10-09T01:26:13;11.10;99.90
20208;DHT22;10263;48.716;8.760;2023-10-09T01:28:39;11.00;99.90
20208;DHT22;10263;48.716;8.760;2023-10-09T01:31:09;11.00;99.90
20208;DHT22;10263;48.716;8.760;2023-10-09T01:33:35;11.10;99.90
20208;DHT22;10263;48.716;8.760;2023-10-09T01:36:03;11.10;99.90
20208;DHT22;10263;48.716;8.760;2023-10-09T01:41:11;10.90;99.90
20208;DHT22;10263;48.716;8.760;2023-10-09T01:43:41;10.60;99.90
20208;DHT22;10263;48.716;8.760;2023-10-09T01:46:10;10.70;99.90
20208;DHT22;10263;48.716;8.760;2023-10-09T01:48:37;10.70;99.90
20208;DHT22;10263;48.716;8.760;2023-10-09T01:53:34;11.00;99.90
20208;DHT22;10263;48.716;8.760;2023-10-09T01:56:12;10.70;99.90
20208;DHT22;10263;48.716;8.760;2023-10-09T01:58:42;10.70;99.90
20208;DHT22;10263;48.716;8.760;2023-10-09T02:01:13;10.80;99.90
20208;DHT22;10263;48.716;8.760;2023-10-09T02:03:41;11.10;99.90
20208;DHT22;10263;48.716;8.760;2023-10-09T02:06:09;10.90;99.90
20208;DHT22;10263;48.716;8.760;2023-10-09T02:08:52;10.60;99.90
20208;DHT22;10263;48.716;8.760;2023-10-09T02:11:21;7.50;99.90
20208;DHT22;10263;48.716;8.760;2023-10-09T02:14:03;11.00;99.90
20208;DHT22;10263;48.716;8.760;2023-10-09T02:16:42;10.80;99.90
20208;DHT22;10263;48.716;8.760;2023-10-09T02:19:09;10.40;99.90
20208;DHT22;10263;48.716;8.760;2023-10-09T02:21:54;10.70;99.90
20208;DHT22;10263;48.716;8.760;2023-10-09T02:24:23;10.50;99.90
20208;DHT22;10263;48.716;8.760;2023-10-09T02:27:09;10.80;99.90
20208;DHT22;10263;48.716;8.760;2023-10-09T02:32:08;10.50;99.90
20208;DHT22;10263;48.716;8.760;2023-10-09T02:37:19;10.40;99.90
20208;DHT22;10263;48.716;8.760;2023-10-09T02:39:50;10.30;99.90
20208;DHT22;10263;48.716;8.760;2023-10-09T02:42:19;10.50;99.90
20208;DHT22;10263;48.716;8.760;2023-10-09T02:44:50;10.60;99.90
20208;DHT22;10263;48.716;8.760;2023-10-09T02:47:18;10.60;99.90
20208;DHT22;10263;48.716;8.760;2023-10-09T02:49:50;10.30;99.90
20208;DHT22;10263;48.716;8.760;2023-10-09T02:52:18;10.80;99.90
20208;DHT22;10263;48.716;8.760;2023-10-09T02:54:50;10.60;99.90
20208;DHT22;10263;48.716;8.760;2023-10-09T02:57:27;10.70;99.90
20208;DHT22;10263;48.716;8.760;2023-10-09T03:00:03;10.20;99.90
20208;DHT22;10263;48.716;8.760;2023-10-09T03:05:06;10.40;99.90
20208;DHT22;10263;48.716;8.760;2023-10-09T03:07:37;10.80;99.90
20208;DHT22;10263;48.716;8.760;2023-10-09T03:10:06;10.30;99.90
20208;DHT22;10263;48.716;8.760;2023-10-09T03:12:37;10.40;99.90
20208;DHT22;10263;48.716;8.760;2023-10-09T03:15:06;10.50;99.90
20208;DHT22;10263;48.716;8.760;2023-10-09T03:20:03;10.70;99.90
20208;DHT22;10263;48.716;8.760;2023-10-09T03:22:37;10.40;99.90
20208;DHT22;10263;48.716;8.760;2023-10-09T03:25:05;10.50;99.90
20208;DHT22;10263;48.716;8.760;2023-10-09T03:27:38;10.20;99.90
20208;DHT22;10263;48.716;8.760;2023-10-09T03:30:09;10.50;99.90
20208;DHT22;10263;48.716;8.760;2023-10-09T03:32:43;10.70;99.90
20208;DHT22;10263;48.716;8.760;2023-10-09T03:35:10;10.50;99.90
20208;DHT22;10263;48.716;8.760;2023-10-09T03:37:42;10.20;99.90
20208;DHT22;10263;48.716;8.760;2023-10-09T03:40:10;10.70;99.90
20208;DHT22;10263;48.716;8.760;2023-10-09T03:42:44;10.20;99.90
20208;DHT22;10263;48.716;8.760;2023-10-09T03:47:51;10.60;99.90
20208;DHT22;10263;48.716;8.760;2023-10-09T03:50:22;10.10;99.90
20208;DHT22;10263;48.716;8.760;2023-10-09T03:52:53;10.50;99.90
20208;DHT22;10263;48.716;8.760;2023-10-09T03:55:21;10.60;99.90
20208;DHT22;10263;48.716;8.760;2023-10-09T03:57:54;10.40;99.90
20208;DHT22;10263;48.716;8.760;2023-10-09T04:00:23;10.30;99.90
20208;DHT22;10263;48.716;8.760;2023-10-09T04:02:53;10.30;99.90
20208;DHT22;10263;48.716;8.760;2023-10-09T04:05:20;10.00;99.90
20208;DHT22;10263;48.716;8.760;2023-10-09T04:07:47;10.10;99.90
20208;DHT22;10263;48.716;8.760;2023-10-09T04:10:14;10.20;99.90
20208;DHT22;10263;48.716;8.760;2023-10-09T04:13:00;10.30;99.90
20208;DHT22;10263;48.716;8.760;2023-10-09T04:23:12;10.60;99.90
20208;DHT22;10263;48.716;8.760;2023-10-09T04:25:42;10.00;99.90
20208;DHT22;10263;48.716;8.760;2023-10-09T04:28:09;10.30;99.90
20208;DHT22;10263;48.716;8.760;2023-10-09T04:30:45;10.20;99.90
20208;DHT22;10263;48.716;8.760;2023-10-09T04:33:19;10.50;99.90
20208;DHT22;10263;48.716;8.760;2023-10-09T04:36:01;10.10;99.90
20208;DHT22;10263;48.716;8.760;2023-10-09T04:38:48;10.70;99.90
20208;DHT22;10263;48.716;8.760;2023-10-09T04:41:40;10.60;99.90
20208;DHT22;10263;48.716;8.760;2023-10-09T04:44:19;10.10;99.90
20208;DHT22;10263;48.716;8.760;2023-10-09T04:46:49;10.20;99.90
20208;DHT22;10263;48.716;8.760;2023-10-09T04:49:30;10.10;99.90
20208;DHT22;10263;48.716;8.760;2023-10-09T04:52:11;10.70;99.90
20208;DHT22;10263;48.716;8.760;2023-10-09T04:54:44;10.10;99.90
20208;DHT22;10263;48.716;8.760;2023-10-09T04:57:36;10.50;99.90
20208;DHT22;10263;48.716;8.760;2023-10-09T05:00:13;10.40;99.90
20208;DHT22;10263;48.716;8.760;2023-10-09T05:03:02;10.60;99.90
20208;DHT22;10263;48.716;8.760;2023-10-09T05:05:34;10.50;99.90
20208;DHT22;10263;48.716;8.760;2023-10-09T05:08:24;10.20;99.90
20208;DHT22;10263;48.716;8.760;2023-10-09T05:10:56;10.60;99.90
20208;DHT22;10263;48.716;8.760;2023-10-09T05:16:10;10.40;99.90
20208;DHT22;10263;48.716;8.760;2023-10-09T05:29:15;10.70;99.90
20208;DHT22;10263;48.716;8.760;2023-10-09T05:31:46;10.70;99.90
20208;DHT22;10263;48.716;8.760;2023-10-09T05:34:22;10.20;99.90
20208;DHT22;10263;48.716;8.760;2023-10-09T05:36:48;10.50;99.90
20208;DHT22;10263;48.716;8.760;2023-10-09T05:39:15;10.70;99.90
20208;DHT22;10263;48.716;8.760;2023-10-09T05:44:25;10.50;99.90
20208;DHT22;10263;48.716;8.760;2023-10-09T05:47:10;10.50;99.90
20208;DHT22;10263;48.716;8.760;2023-10-09T05:52:49;10.50;99.90
20208;DHT22;10263;48.716;8.760;2023-10-09T05:55:33;10.60;99.90
20208;DHT22;10263;48.716;8.760;2023-10-09T05:58:34;10.60;99.90
20208;DHT22;10263;48.716;8.760;2023-10-09T06:01:18;10.30;99.90
20208;DHT22;10263;48.716;8.760;2023-10-09T06:04:04;10.50;99.90
20208;DHT22;10263;48.716;8.760;2023-10-09T06:09:12;11.10;99.90
20208;DHT22;10263;48.716;8.760;2023-10-09T06:11:56;11.00;99.90
20208;DHT22;10263;48.716;8.760;2023-10-09T06:14:37;10.90;99.90
20208;DHT22;10263;48.716;8.760;2023-10-09T06:17:24;11.30;99.90
20208;DHT22;10263;48.716;8.760;2023-10-09T06:19:53;11.00;99.90
20208;DHT22;10263;48.716;8.760;2023-10-09T06:25:10;11.20;99.90
20208;DHT22;10263;48.716;8.760;2023-10-09T06:27:37;11.10;99.90
20208;DHT22;10263;48.716;8.760;2023-10-09T06:30:21;11.50;99.90
20208;DHT22;10263;48.716;8.760;2023-10-09T06:35:37;11.40;99.90
20208;DHT22;10263;48.716;8.760;2023-10-09T06:40:49;11.60;99.90
20208;DHT22;10263;48.716;8.760;2023-10-09T06:43:33;11.90;99.90
20208;DHT22;10263;48.716;8.760;2023-10-09T06:46:14;11.70;99.90
20208;DHT22;10263;48.716;8.760;2023-10-09T06:48:58;12.00;99.90
20208;DHT22;10263;48.716;8.760;2023-10-09T06:51:26;12.20;99.90
20208;DHT22;10263;48.716;8.760;2023-10-09T06:59:28;12.30;99.90
20208;DHT22;10263;48.716;8.760;2023-10-09T07:02:07;12.30;99.90
20208;DHT22;10263;48.716;8.760;2023-10-09T07:04:52;12.10;99.90
20208;DHT22;10263;48.716;8.760;2023-10-09T07:07:22;12.20;99.90
20208;DHT22;10263;48.716;8.760;2023-10-09T07:09:51;12.20;99.90
20208;DHT22;10263;48.716;8.760;2023-10-09T07:12:36;12.40;99.90
20208;DHT22;10263;48.716;8.760;2023-10-09T07:15:09;12.60;99.90
20208;DHT22;10263;48.716;8.760;2023-10-09T07:17:54;12.70;99.90
20208;DHT22;10263;48.716;8.760;2023-10-09T07:20:21;12.80;99.90
20208;DHT22;10263;48.716;8.760;2023-10-09T07:23:05;12.90;99.90
20208;DHT22;10263;48.716;8.760;2023-10-09T07:25:41;13.50;99.90
20208;DHT22;10263;48.716;8.760;2023-10-09T07:28:21;13.20;99.90
20208;DHT22;10263;48.716;8.760;2023-10-09T07:31:08;13.30;99.90
20208;DHT22;10263;48.716;8.760;2023-10-09T07:33:50;13.40;99.90
20208;DHT22;10263;48.716;8.760;2023-10-09T07:36:32;13.80;99.90
20208;DHT22;10263;48.716;8.760;2023-10-09T07:39:05;13.60;99.90
20208;DHT22;10263;48.716;8.760;2023-10-09T07:41:43;13.60;99.90
20208;DHT22;10263;48.716;8.760;2023-10-09T07:44:27;13.70;99.90
20208;DHT22;10263;48.716;8.760;2023-10-09T07:47:08;14.00;99.90
20208;DHT22;10263;48.716;8.760;2023-10-09T07:49:44;13.80;99.90
20208;DHT22;10263;48.716;8.760;2023-10-09T07:52:19;14.60;99.90
20208;DHT22;10263;48.716;8.760;2023-10-09T07:54:49;14.50;99.90
20208;DHT22;10263;48.716;8.760;2023-10-09T08:00:05;15.00;99.90
20208;DHT22;10263;48.716;8.760;2023-10-09T08:05:28;15.20;99.90
20208;DHT22;10263;48.716;8.760;2023-10-09T08:08:00;15.20;99.90
20208;DHT22;10263;48.716;8.760;2023-10-09T08:10:53;15.10;99.90
20208;DHT22;10263;48.716;8.760;2023-10-09T08:13:38;15.60;99.90
20208;DHT22;10263;48.716;8.760;2023-10-09T08:16:22;15.40;99.90
20208;DHT22;10263;48.716;8.760;2023-10-09T08:18:49;15.90;99.90
20208;DHT22;10263;48.716;8.760;2023-10-09T08:21:17;15.50;99.90
20208;DHT22;10263;48.716;8.760;2023-10-09T08:23:45;15.70;99.90
20208;DHT22;10263;48.716;8.760;2023-10-09T08:26:17;15.70;99.90
20208;DHT22;10263;48.716;8.760;2023-10-09T08:28:54;15.60;99.90
20208;DHT22;10263;48.716;8.760;2023-10-09T08:31:42;15.80;99.90
20208;DHT22;10263;48.716;8.760;2023-10-09T08:34:22;16.00;99.90
20208;DHT22;10263;48.716;8.760;2023-10-09T08:36:53;15.90;99.90
20208;DHT22;10263;48.716;8.760;2023-10-09T08:39:19;16.20;99.90
20208;DHT22;10263;48.716;8.760;2023-10-09T08:41:54;16.30;99.90
20208;DHT22;10263;48.716;8.760;2023-10-09T08:44:24;16.50;99.90
20208;DHT22;10263;48.716;8.760;2023-10-09T08:46:54;16.60;99.90
20208;DHT22;10263;48.716;8.760;2023-10-09T08:49:21;16.80;99.90
20208;DHT22;10263;48.716;8.760;2023-10-09T08:51:48;16.70;99.90
20208;DHT22;10263;48.716;8.760;2023-10-09T08:56:42;16.50;99.90
20208;DHT22;10263;48.716;8.760;2023-10-09T08:59:18;16.70;99.90
20208;DHT22;10263;48.716;8.760;2023-10-09T09:01:45;16.90;99.90
20208;DHT22;10263;48.716;8.760;2023-10-09T09:04:38;17.30;99.90
20208;DHT22;10263;48.716;8.760;2023-10-09T09:07:06;17.20;99.90
20208;DHT22;10263;48.716;8.760;2023-10-09T09:09:33;17.40;99.90
20208;DHT22;10263;48.716;8.760;2023-10-09T09:12:00;17.00;99.90
20208;DHT22;10263;48.716;8.760;2023-10-09T09:14:38;17.40;99.90
20208;DHT22;10263;48.716;8.760;2023-10-09T09:17:06;17.70;99.90
20208;DHT22;10263;48.716;8.760;2023-10-09T09:19:37;17.80;99.90
20208;DHT22;10263;48.716;8.760;2023-10-09T09:22:05;17.90;99.90
20208;DHT22;10263;48.716;8.760;2023-10-09T09:24:39;17.70;99.90
20208;DHT22;10263;48.716;8.760;2023-10-09T09:27:11;18.00;99.90
20208;DHT22;10263;48.716;8.760;2023-10-09T09:29:46;17.90;99.90
20208;DHT22;10263;48.716;8.760;2023-10-09T09:32:27;18.10;99.90
20208;DHT22;10263;48.716;8.760;2023-10-09T09:35:01;18.60;99.90
20208;DHT22;10263;48.716;8.760;2023-10-09T09:37:30;18.60;99.90
20208;DHT22;10263;48.716;8.760;2023-10-09T09:40:15;18.70;99.90
20208;DHT22;10263;48.716;8.760;2023-10-09T09:42:55;19.00;99.90
20208;DHT22;10263;48.716;8.760;2023-10-09T09:45:32;19.00;99.90
20208;DHT22;10263;48.716;8.760;2023-10-09T09:48:01;19.20;99.90
20208;DHT22;10263;48.716;8.760;2023-10-09T09:55:29;20.30;99.90
20208;DHT22;10263;48.716;8.760;2023-10-09T09:57:58;20.80;99.90
20208;DHT22;10263;48.716;8.760;2023-10-09T10:00:27;20.90;99.90
20208;DHT22;10263;48.716;8.760;2023-10-09T10:03:08;21.30;99.90
20208;DHT22;10263;48.716;8.760;2023-10-09T10:05:37;21.30;99.90
20208;DHT22;10263;48.716;8.760;2023-10-09T10:08:06;21.60;99.90
20208;DHT22;10263;48.716;8.760;2023-10-09T10:10:39;21.70;99.90
20208;DHT22;10263;48.716;8.760;2023-10-09T10:13:13;22.10;99.90
20208;DHT22;10263;48.716;8.760;2023-10-09T10:16:06;22.00;99.90
20208;DHT22;10263;48.716;8.760;2023-10-09T10:18:57;22.20;99.90
20208;DHT22;10263;48.716;8.760;2023-10-09T10:21:33;23.10;99.90
20208;DHT22;10263;48.716;8.760;2023-10-09T10:24:05;23.00;99.80
20208;DHT22;10263;48.716;8.760;2023-10-09T10:27:14;23.40;99.20
20208;DHT22;10263;48.716;8.760;2023-10-09T10:35:36;23.30;98.50
20208;DHT22;10263;48.716;8.760;2023-10-09T10:38:29;23.00;95.40
20208;DHT22;10263;48.716;8.760;2023-10-09T10:41:09;23.50;94.00
20208;DHT22;10263;48.716;8.760;2023-10-09T10:43:39;23.40;94.60
20208;DHT22;10263;48.716;8.760;2023-10-09T10:46:21;23.40;94.00
20208;DHT22;10263;48.716;8.760;2023-10-09T10:48:56;22.60;92.50
20208;DHT22;10263;48.716;8.760;2023-10-09T10:51:27;22.70;93.70
20208;DHT22;10263;48.716;8.760;2023-10-09T10:54:04;23.10;92.70
20208;DHT22;10263;48.716;8.760;2023-10-09T10:56:45;23.10;93.60
20208;DHT22;10263;48.716;8.760;2023-10-09T10:59:15;22.60;92.80
20208;DHT22;10263;48.716;8.760;2023-10-09T11:01:48;22.90;91.80
20208;DHT22;10263;48.716;8.760;2023-10-09T11:04:25;22.90;93.80
20208;DHT22;10263;48.716;8.760;2023-10-09T11:07:06;22.70;93.30
20208;DHT22;10263;48.716;8.760;2023-10-09T11:09:45;23.00;92.70
20208;DHT22;10263;48.716;8.760;2023-10-09T11:12:43;23.10;90.60
20208;DHT22;10263;48.716;8.760;2023-10-09T11:15:31;23.40;91.40
20208;DHT22;10263;48.716;8.760;2023-10-09T11:18:04;22.90;90.70
20208;DHT22;10263;48.716;8.760;2023-10-09T11:20:33;22.90;88.40
20208;DHT22;10263;48.716;8.760;2023-10-09T11:23:03;23.00;87.00
20208;DHT22;10263;48.716;8.760;2023-10-09T11:25:42;23.20;90.40
20208;DHT22;10263;48.716;8.760;2023-10-09T11:28:17;22.80;90.20
20208;DHT22;10263;48.716;8.760;2023-10-09T11:30:55;22.80;91.80
20208;DHT22;10263;48.716;8.760;2023-10-09T11:33:42;22.90;93.60
20208;DHT22;10263;48.716;8.760;2023-10-09T11:36:09;22.60;89.90
20208;DHT22;10263;48.716;8.760;2023-10-09T11:38:38;22.60;87.60
20208;DHT22;10263;48.716;8.760;2023-10-09T11:41:14;22.70;87.80
20208;DHT22;10263;48.716;8.760;2023-10-09T11:43:50;23.00;89.70
20208;DHT22;10263;48.716;8.760;2023-10-09T11:46:19;22.50;91.30
20208;DHT22;10263;48.716;8.760;2023-10-09T11:49:07;22.60;90.50
20208;DHT22;10263;48.716;8.760;2023-10-09T11:52:07;22.60;88.70
20208;DHT22;10263;48.716;8.760;2023-10-09T11:54:52;22.70;89.60
20208;DHT22;10263;48.716;8.760;2023-10-09T11:57:23;22.40;91.00
20208;DHT22;10263;48.716;8.760;2023-10-09T11:59:56;22.60;89.40
20208;DHT22;10263;48.716;8.760;2023-10-09T12:02:24;22.40;87.40
20208;DHT22;10263;48.716;8.760;2023-10-09T12:04:50;21.90;80.00
20208;DHT22;10263;48.716;8.760;2023-10-09T12:12:16;22.10;83.60
20208;DHT22;10263;48.716;8.760;2023-10-09T12:17:11;22.30;80.50
20208;DHT22;10263;48.716;8.760;2023-10-09T12:19:39;22.10;78.00
20208;DHT22;10263;48.716;8.760;2023-10-09T12:22:07;22.00;75.80
20208;DHT22;10263;48.716;8.760;2023-10-09T12:24:36;22.10;75.10
20208;DHT22;10263;48.716;8.760;2023-10-09T12:27:09;22.30;74.60
20208;DHT22;10263;48.716;8.760;2023-10-09T12:29:38;22.20;72.50
20208;DHT22;10263;48.716;8.760;2023-10-09T12:32:10;22.20;72.00
20208;DHT22;10263;48.716;8.760;2023-10-09T12:34:37;22.70;74.80
20208;DHT22;10263;48.716;8.760;2023-10-09T12:37:04;22.20;74.80
20208;DHT22;10263;48.716;8.760;2023-10-09T12:39:31;22.30;73.90
20208;DHT22;10263;48.716;8.760;2023-10-09T12:44:32;22.70;75.70
20208;DHT22;10263;48.716;8.760;2023-10-09T12:47:05;22.60;76.20
20208;DHT22;10263;48.716;8.760;2023-10-09T12:49:32;23.20;79.30
20208;DHT22;10263;48.716;8.760;2023-10-09T12:54:26;23.20;75.10
20208;DHT22;10263;48.716;8.760;2023-10-09T12:56:53;23.00;71.80
20208;DHT22;10263;48.716;8.760;2023-10-09T12:59:20;23.30;71.90
20208;DHT22;10263;48.716;8.760;2023-10-09T13:04:24;23.20;72.00
20208;DHT22;10263;48.716;8.760;2023-10-09T13:06:58;23.40;72.40
20208;DHT22;10263;48.716;8.760;2023-10-09T13:12:01;23.40;78.10
20208;DHT22;10263;48.716;8.760;2023-10-09T13:19:23;24.30;74.90
20208;DHT22;10263;48.716;8.760;2023-10-09T13:21:50;24.10;71.20
20208;DHT22;10263;48.716;8.760;2023-10-09T13:26:50;24.30;67.30
20208;DHT22;10263;48.716;8.760;2023-10-09T13:29:18;24.40;69.90
20208;DHT22;10263;48.716;8.760;2023-10-09T13:31:48;24.20;70.10
20208;DHT22;10263;48.716;8.760;2023-10-09T13:36:46;24.30;69.40
20208;DHT22;10263;48.716;8.760;2023-10-09T13:39:18;24.60;71.00
20208;DHT22;10263;48.716;8.760;2023-10-09T13:41:50;24.30;69.20
20208;DHT22;10263;48.716;8.760;2023-10-09T13:44:23;24.30;69.50
20208;DHT22;10263;48.716;8.760;2023-10-09T13:51:49;24.60;64.60
20208;DHT22;10263;48.716;8.760;2023-10-09T13:54:17;24.50;63.90
20208;DHT22;10263;48.716;8.760;2023-10-09T13:56:54;25.40;65.80
20208;DHT22;10263;48.716;8.760;2023-10-09T13:59:21;25.20;65.90
20208;DHT22;10263;48.716;8.760;2023-10-09T14:01:48;25.10;66.10
20208;DHT22;10263;48.716;8.760;2023-10-09T14:04:16;25.80;69.20
20208;DHT22;10263;48.716;8.760;2023-10-09T14:06:45;26.20;69.10
20208;DHT22;10263;48.716;8.760;2023-10-09T14:09:14;26.00;62.00
20208;DHT22;10263;48.716;8.760;2023-10-09T14:11:56;26.50;62.50
20208;DHT22;10263;48.716;8.760;2023-10-09T14:14:33;27.10;58.10
20208;DHT22;10263;48.716;8.760;2023-10-09T14:17:04;27.60;62.00
20208;DHT22;10263;48.716;8.760;2023-10-09T14:19:38;27.00;60.00
20208;DHT22;10263;48.716;8.760;2023-10-09T14:22:05;27.00;62.90
20208;DHT22;10263;48.716;8.760;2023-10-09T14:24:34;26.70;61.30
20208;DHT22;10263;48.716;8.760;2023-10-09T14:27:03;26.90;57.50
20208;DHT22;10263;48.716;8.760;2023-10-09T14:29:31;26.40;58.60
20208;DHT22;10263;48.716;8.760;2023-10-09T14:32:02;26.60;58.00
20208;DHT22;10263;48.716;8.760;2023-10-09T14:37:01;26.00;59.50
20208;DHT22;10263;48.716;8.760;2023-10-09T14:41:57;25.50;58.70
20208;DHT22;10263;48.716;8.760;2023-10-09T14:44:24;25.40;58.60
20208;DHT22;10263;48.716;8.760;2023-10-09T14:46:54;25.90;59.30
20208;DHT22;10263;48.716;8.760;2023-10-09T14:49:21;25.60;59.40
20208;DHT22;10263;48.716;8.760;2023-10-09T14:51:49;24.90;58.90
20208;DHT22;10263;48.716;8.760;2023-10-09T14:54:17;25.00;60.80
20208;DHT22;10263;48.716;8.760;2023-10-09T14:56:44;25.10;56.60
20208;DHT22;10263;48.716;8.760;2023-10-09T14:59:13;25.00;60.00
20208;DHT22;10263;48.716;8.760;2023-10-09T15:01:40;25.40;63.20
20208;DHT22;10263;48.716;8.760;2023-10-09T15:04:06;24.50;58.90
20208;DHT22;10263;48.716;8.760;2023-10-09T15:06:40;24.90;62.30
20208;DHT22;10263;48.716;8.760;2023-10-09T15:09:07;25.20;63.60
20208;DHT22;10263;48.716;8.760;2023-10-09T15:14:16;24.30;59.60
20208;DHT22;10263;48.716;8.760;2023-10-09T15:16:44;24.50;62.70
20208;DHT22;10263;48.716;8.760;2023-10-09T15:21:39;25.00;61.00
20208;DHT22;10263;48.716;8.760;2023-10-09T15:24:10;24.50;60.70
20208;DHT22;10263;48.716;8.760;2023-10-09T15:26:38;24.90;63.30
20208;DHT22;10263;48.716;8.760;2023-10-09T15:29:05;24.50;61.50
20208;DHT22;10263;48.716;8.760;2023-10-09T15:31:36;24.70;65.90
20208;DHT22;10263;48.716;8.760;2023-10-09T15:34:04;24.70;66.50
20208;DHT22;10263;48.716;8.760;2023-10-09T15:36:35;24.10;67.10
20208;DHT22;10263;48.716;8.760;2023-10-09T15:39:02;23.30;64.40
20208;DHT22;10263;48.716;8.760;2023-10-09T15:44:00;24.00;62.30
20208;DHT22;10263;48.716;8.760;2023-10-09T15:49:00;23.60;66.00
20208;DHT22;10263;48.716;8.760;2023-10-09T15:51:27;23.50;66.40
20208;DHT22;10263;48.716;8.760;2023-10-09T15:53:55;23.90;64.20
20208;DHT22;10263;48.716;8.760;2023-10-09T15:56:22;23.10;64.50
20208;DHT22;10263;48.716;8.760;2023-10-09T15:58:49;23.30;64.30
20208;DHT22;10263;48.716;8.760;2023-10-09T16:01:19;22.90;63.10
20208;DHT22;10263;48.716;8.760;2023-10-09T16:03:48;23.20;59.70
20208;DHT22;10263;48.716;8.760;2023-10-09T16:06:17;22.70;60.00
20208;DHT22;10263;48.716;8.760;2023-10-09T16:08:45;23.40;60.80
20208;DHT22;10263;48.716;8.760;2023-10-09T16:11:16;23.40;59.70
20208;DHT22;10263;48.716;8.760;2023-10-09T16:13:43;23.30;58.80
20208;DHT22;10263;48.716;8.760;2023-10-09T16:16:10;22.50;56.70
20208;DHT22;10263;48.716;8.760;2023-10-09T16:18:39;22.80;57.50
20208;DHT22;10263;48.716;8.760;2023-10-09T16:21:06;22.80;57.60
20208;DHT22;10263;48.716;8.760;2023-10-09T16:23:35;22.60;58.80
20208;DHT22;10263;48.716;8.760;2023-10-09T16:33:27;22.50;58.10
20208;DHT22;10263;48.716;8.760;2023-10-09T16:35:54;22.30;57.10
20208;DHT22;10263;48.716;8.760;2023-10-09T16:38:25;22.70;59.40
20208;DHT22;10263;48.716;8.760;2023-10-09T16:40:54;22.40;58.40
20208;DHT22;10263;48.716;8.760;2023-10-09T16:43:22;22.40;59.70
20208;DHT22;10263;48.716;8.760;2023-10-09T16:45:52;22.00;58.10
20208;DHT22;10263;48.716;8.760;2023-10-09T16:48:23;22.10;62.00
20208;DHT22;10263;48.716;8.760;2023-10-09T16:50:54;21.80;62.50
20208;DHT22;10263;48.716;8.760;2023-10-09T16:53:21;21.80;62.90
20208;DHT22;10263;48.716;8.760;2023-10-09T16:55:48;21.70;66.60
20208;DHT22;10263;48.716;8.760;2023-10-09T16:58:16;21.80;63.40
20208;DHT22;10263;48.716;8.760;2023-10-09T17:03:11;21.80;64.50
20208;DHT22;10263;48.716;8.760;2023-10-09T17:05:40;21.80;68.50
20208;DHT22;10263;48.716;8.760;2023-10-09T17:08:21;21.80;66.60
20208;DHT22;10263;48.716;8.760;2023-10-09T17:10:48;21.20;68.90
20208;DHT22;10263;48.716;8.760;2023-10-09T17:13:18;21.40;68.40
20208;DHT22;10263;48.716;8.760;2023-10-09T17:15:47;21.20;71.40
20208;DHT22;10263;48.716;8.760;2023-10-09T17:18:19;21.40;72.10
20208;DHT22;10263;48.716;8.760;2023-10-09T17:20:47;20.80;66.00
20208;DHT22;10263;48.716;8.760;2023-10-09T17:28:10;20.70;68.00
20208;DHT22;10263;48.716;8.760;2023-10-09T17:30:45;17.50;62.40
20208;DHT22;10263;48.716;8.760;2023-10-09T17:33:15;20.70;69.40
20208;DHT22;10263;48.716;8.760;2023-10-09T17:35:45;20.80;67.00
20208;DHT22;10263;48.716;8.760;2023-10-09T17:38:12;20.60;69.70
20208;DHT22;10263;48.716;8.760;2023-10-09T17:40:45;20.60;68.90
20208;DHT22;10263;48.716;8.760;2023-10-09T17:43:13;20.50;73.50
20208;DHT22;10263;48.716;8.760;2023-10-09T17:48:09;20.40;72.40
20208;DHT22;10263;48.716;8.760;2023-10-09T17:50:36;20.50;74.30
20208;DHT22;10263;48.716;8.760;2023-10-09T17:55:35;20.30;75.30
20208;DHT22;10263;48.716;8.760;2023-10-09T17:58:02;20.30;71.70
20208;DHT22;10263;48.716;8.760;2023-10-09T18:00:34;20.30;73.60
20208;DHT22;10263;48.716;8.760;2023-10-09T18:03:01;20.20;75.40
20208;DHT22;10263;48.716;8.760;2023-10-09T18:05:30;20.20;73.10
20208;DHT22;10263;48.716;8.760;2023-10-09T18:07:57;20.10;72.40
20208;DHT22;10263;48.716;8.760;2023-10-09T18:10:27;19.90;73.60
20208;DHT22;10263;48.716;8.760;2023-10-09T18:12:56;20.00;79.60
20208;DHT22;10263;48.716;8.760;2023-10-09T18:15:23;20.00;77.40
20208;DHT22;10263;48.716;8.760;2023-10-09T18:17:49;19.70;76.30
20208;DHT22;10263;48.716;8.760;2023-10-09T18:20:16;19.90;78.50
20208;DHT22;10263;48.716;8.760;2023-10-09T18:22:47;19.60;77.40
20208;DHT22;10263;48.716;8.760;2023-10-09T18:25:14;19.50;78.90
20208;DHT22;10263;48.716;8.760;2023-10-09T18:27:44;19.50;77.30
20208;DHT22;10263;48.716;8.760;2023-10-09T18:30:11;19.50;79.00
20208;DHT22;10263;48.716;8.760;2023-10-09T18:32:38;19.50;77.60
20208;DHT22;10263;48.716;8.760;2023-10-09T18:35:06;19.30;78.60
20208;DHT22;10263;48.716;8.760;2023-10-09T18:37:35;19.30;83.00
20208;DHT22;10263;48.716;8.760;2023-10-09T18:40:07;19.20;81.20